sensor_id;sensor_type;location;lat;lon;timestamp;pressure;altitude;pressure_sealevel;temperature;humidity
54936;BME280;40838;50.676;7.838;2024-02-21T00:01:58;99117.59;;;5.27;100.00
54936;BME280;40838;50.676;7.838;2024-02-21T00:04:25;99104.22;;;5.16;100.00
54936;BME280;40838;50.676;7.838;2024-02-21T00:06:52;99099.13;;;5.08;100.00
54936;BME280;40838;50.676;7.838;2024-02-21T00:09:20;99090.69;;;5.19;100.00
54936;BME280;40838;50.676;7.838;2024-02-21T00:11:47;99091.31;;;5.14;100.00
54936;BME280;40838;50.676;7.838;2024-02-21T00:14:15;99085.66;;;5.24;100.00
54936;BME280;40838;50.676;7.838;2024-02-21T00:16:43;99091.94;;;5.23;100.00
54936;BME280;40838;50.676;7.838;2024-02-21T00:19:10;99099.34;;;5.06;100.00
54936;BME280;40838;50.676;7.838;2024-02-21T00:21:37;99088.88;;;5.19;100.00
54936;BME280;40838;50.676;7.838;2024-02-21T00:24:05;99095.38;;;5.30;100.00
54936;BME280;40838;50.676;7.838;2024-02-21T00:26:32;99095.03;;;4.92;100.00
54936;BME280;40838;50.676;7.838;2024-02-21T00:28:59;99091.25;;;5.08;100.00
54936;BME280;40838;50.676;7.838;2024-02-21T00:31:27;99084.16;;;4.95;100.00
54936;BME280;40838;50.676;7.838;2024-02-21T00:33:54;99082.31;;;4.89;100.00
54936;BME280;40838;50.676;7.838;2024-02-21T00:36:22;99079.56;;;5.10;100.00
54936;BME280;40838;50.676;7.838;2024-02-21T00:38:49;99090.66;;;5.06;100.00
54936;BME280;40838;50.676;7.838;2024-02-21T00:41:16;99089.31;;;5.23;100.00
54936;BME280;40838;50.676;7.838;2024-02-21T00:43:43;99077.31;;;5.00;100.00
54936;BME280;40838;50.676;7.838;2024-02-21T00:46:10;99066.66;;;5.09;100.00
54936;BME280;40838;50.676;7.838;2024-02-21T00:48:38;99080.34;;;5.04;100.00
54936;BME280;40838;50.676;7.838;2024-02-21T00:51:06;99068.06;;;5.11;100.00
54936;BME280;40838;50.676;7.838;2024-02-21T00:53:33;99059.00;;;5.14;100.00
54936;BME280;40838;50.676;7.838;2024-02-21T00:56:04;99050.31;;;5.13;100.00
54936;BME280;40838;50.676;7.838;2024-02-21T00:58:31;99043.63;;;5.11;100.00
54936;BME280;40838;50.676;7.838;2024-02-21T01:00:58;99047.66;;;5.07;100.00
54936;BME280;40838;50.676;7.838;2024-02-21T01:03:25;99044.28;;;5.26;100.00
54936;BME280;40838;50.676;7.838;2024-02-21T01:05:54;99033.91;;;4.98;100.00
54936;BME280;40838;50.676;7.838;2024-02-21T01:08:21;99039.44;;;5.23;100.00
54936;BME280;40838;50.676;7.838;2024-02-21T01:10:48;99035.97;;;5.09;100.00
54936;BME280;40838;50.676;7.838;2024-02-21T01:13:15;99040.97;;;4.97;100.00
54936;BME280;40838;50.676;7.838;2024-02-21T01:15:42;99043.22;;;5.00;100.00
54936;BME280;40838;50.676;7.838;2024-02-21T01:18:09;99043.19;;;4.94;100.00
54936;BME280;40838;50.676;7.838;2024-02-21T01:20:36;99038.78;;;5.08;100.00
54936;BME280;40838;50.676;7.838;2024-02-21T01:23:05;99044.41;;;4.98;100.00
54936;BME280;40838;50.676;7.838;2024-02-21T01:25:32;99044.84;;;5.08;100.00
54936;BME280;40838;50.676;7.838;2024-02-21T01:27:59;99038.81;;;5.14;100.00
54936;BME280;40838;50.676;7.838;2024-02-21T01:30:26;99031.53;;;5.16;100.00
54936;BME280;40838;50.676;7.838;2024-02-21T01:32:53;99021.03;;;5.10;100.00
54936;BME280;40838;50.676;7.838;2024-02-21T01:35:20;99023.69;;;5.23;100.00
54936;BME280;40838;50.676;7.838;2024-02-21T01:37:50;99025.47;;;5.09;100.00
54936;BME280;40838;50.676;7.838;2024-02-21T01:40:19;99029.13;;;5.15;100.00
54936;BME280;40838;50.676;7.838;2024-02-21T01:42:46;99029.50;;;5.12;100.00
54936;BME280;40838;50.676;7.838;2024-02-21T01:45:13;99024.91;;;5.34;100.00
54936;BME280;40838;50.676;7.838;2024-02-21T01:47:40;99024.50;;;5.17;100.00
54936;BME280;40838;50.676;7.838;2024-02-21T01:50:07;99015.59;;;5.18;100.00
54936;BME280;40838;50.676;7.838;2024-02-21T01:52:34;99006.75;;;5.25;100.00
54936;BME280;40838;50.676;7.838;2024-02-21T01:55:02;99009.94;;;5.14;100.00
54936;BME280;40838;50.676;7.838;2024-02-21T01:57:30;99005.72;;;5.20;100.00
54936;BME280;40838;50.676;7.838;2024-02-21T01:59:57;98995.75;;;4.95;100.00
54936;BME280;40838;50.676;7.838;2024-02-21T02:02:24;98998.78;;;4.92;100.00
54936;BME280;40838;50.676;7.838;2024-02-21T02:04:51;98997.00;;;5.13;100.00
54936;BME280;40838;50.676;7.838;2024-02-21T02:07:18;98986.91;;;5.03;100.00
54936;BME280;40838;50.676;7.838;2024-02-21T02:09:45;98986.06;;;4.89;100.00
54936;BME280;40838;50.676;7.838;2024-02-21T02:12:12;98974.75;;;4.82;100.00
54936;BME280;40838;50.676;7.838;2024-02-21T02:14:40;98964.88;;;4.97;100.00
54936;BME280;40838;50.676;7.838;2024-02-21T02:17:07;98971.34;;;5.01;100.00
54936;BME280;40838;50.676;7.838;2024-02-21T02:19:35;98974.59;;;5.03;100.00
54936;BME280;40838;50.676;7.838;2024-02-21T02:22:11;98964.09;;;5.10;100.00
54936;BME280;40838;50.676;7.838;2024-02-21T02:24:43;98980.06;;;5.09;100.00
54936;BME280;40838;50.676;7.838;2024-02-21T02:27:10;98962.69;;;5.21;100.00
54936;BME280;40838;50.676;7.838;2024-02-21T02:32:44;98949.53;;;4.94;100.00
54936;BME280;40838;50.676;7.838;2024-02-21T02:35:11;98949.16;;;4.91;100.00
54936;BME280;40838;50.676;7.838;2024-02-21T02:37:38;98948.91;;;4.86;100.00
54936;BME280;40838;50.676;7.838;2024-02-21T02:40:08;98934.19;;;4.85;100.00
54936;BME280;40838;50.676;7.838;2024-02-21T02:42:35;98918.03;;;4.74;100.00
54936;BME280;40838;50.676;7.838;2024-02-21T02:45:02;98917.44;;;4.79;100.00
54936;BME280;40838;50.676;7.838;2024-02-21T02:47:29;98909.16;;;4.95;100.00
54936;BME280;40838;50.676;7.838;2024-02-21T02:49:56;98905.56;;;5.03;100.00
54936;BME280;40838;50.676;7.838;2024-02-21T02:52:24;98898.69;;;5.22;100.00
54936;BME280;40838;50.676;7.838;2024-02-21T02:54:51;98896.28;;;5.14;100.00
54936;BME280;40838;50.676;7.838;2024-02-21T02:57:22;98890.22;;;5.13;100.00
54936;BME280;40838;50.676;7.838;2024-02-21T02:59:49;98885.16;;;4.85;100.00
54936;BME280;40838;50.676;7.838;2024-02-21T03:02:17;98891.03;;;5.07;100.00
54936;BME280;40838;50.676;7.838;2024-02-21T03:04:44;98887.59;;;5.13;100.00
54936;BME280;40838;50.676;7.838;2024-02-21T03:07:12;98885.75;;;4.87;100.00
54936;BME280;40838;50.676;7.838;2024-02-21T03:09:39;98892.63;;;4.81;100.00
54936;BME280;40838;50.676;7.838;2024-02-21T03:12:08;98886.16;;;4.77;100.00
54936;BME280;40838;50.676;7.838;2024-02-21T03:14:36;98879.31;;;4.83;100.00
54936;BME280;40838;50.676;7.838;2024-02-21T03:17:04;98884.53;;;4.90;100.00
54936;BME280;40838;50.676;7.838;2024-02-21T03:19:31;98896.28;;;5.00;100.00
54936;BME280;40838;50.676;7.838;2024-02-21T03:21:58;98900.88;;;4.78;100.00
54936;BME280;40838;50.676;7.838;2024-02-21T03:24:25;98883.75;;;4.82;100.00
54936;BME280;40838;50.676;7.838;2024-02-21T03:26:52;98887.78;;;4.85;100.00
54936;BME280;40838;50.676;7.838;2024-02-21T03:29:19;98886.56;;;4.81;100.00
54936;BME280;40838;50.676;7.838;2024-02-21T03:31:48;98884.31;;;4.78;100.00
54936;BME280;40838;50.676;7.838;2024-02-21T03:34:15;98879.09;;;4.71;100.00
54936;BME280;40838;50.676;7.838;2024-02-21T03:36:42;98897.25;;;4.79;100.00
54936;BME280;40838;50.676;7.838;2024-02-21T03:39:09;98901.47;;;4.74;100.00
54936;BME280;40838;50.676;7.838;2024-02-21T03:41:36;98897.47;;;4.85;100.00
54936;BME280;40838;50.676;7.838;2024-02-21T03:44:04;98893.03;;;4.98;100.00
54936;BME280;40838;50.676;7.838;2024-02-21T03:46:31;98891.81;;;5.01;100.00
54936;BME280;40838;50.676;7.838;2024-02-21T03:49:01;98868.81;;;4.76;100.00
54936;BME280;40838;50.676;7.838;2024-02-21T03:51:28;98866.78;;;4.98;100.00
54936;BME280;40838;50.676;7.838;2024-02-21T03:53:55;98867.59;;;4.79;100.00
54936;BME280;40838;50.676;7.838;2024-02-21T03:56:22;98864.16;;;4.78;100.00
54936;BME280;40838;50.676;7.838;2024-02-21T03:58:50;98860.91;;;4.70;100.00
54936;BME280;40838;50.676;7.838;2024-02-21T04:01:17;98845.16;;;4.56;100.00
54936;BME280;40838;50.676;7.838;2024-02-21T04:03:44;98852.25;;;4.69;100.00
54936;BME280;40838;50.676;7.838;2024-02-21T04:06:12;98847.03;;;4.89;100.00
54936;BME280;40838;50.676;7.838;2024-02-21T04:08:39;98850.66;;;4.88;100.00
54936;BME280;40838;50.676;7.838;2024-02-21T04:11:06;98844.19;;;4.77;100.00
54936;BME280;40838;50.676;7.838;2024-02-21T04:13:33;98826.22;;;4.81;100.00
54936;BME280;40838;50.676;7.838;2024-02-21T04:16:00;98830.25;;;4.64;100.00
54936;BME280;40838;50.676;7.838;2024-02-21T04:18:28;98829.88;;;4.73;100.00
54936;BME280;40838;50.676;7.838;2024-02-21T04:20:56;98833.69;;;4.71;100.00
54936;BME280;40838;50.676;7.838;2024-02-21T04:23:24;98836.75;;;4.88;100.00
54936;BME280;40838;50.676;7.838;2024-02-21T04:25:51;98831.84;;;4.51;100.00
54936;BME280;40838;50.676;7.838;2024-02-21T04:28:19;98830.47;;;4.69;100.00
54936;BME280;40838;50.676;7.838;2024-02-21T04:30:46;98836.72;;;4.81;100.00
54936;BME280;40838;50.676;7.838;2024-02-21T04:33:13;98843.38;;;4.77;100.00
54936;BME280;40838;50.676;7.838;2024-02-21T04:35:40;98839.94;;;4.63;100.00
54936;BME280;40838;50.676;7.838;2024-02-21T04:38:07;98840.16;;;4.68;100.00
54936;BME280;40838;50.676;7.838;2024-02-21T04:40:36;98851.66;;;4.67;100.00
54936;BME280;40838;50.676;7.838;2024-02-21T04:43:03;98847.22;;;4.81;100.00
54936;BME280;40838;50.676;7.838;2024-02-21T04:45:30;98841.34;;;4.59;100.00
54936;BME280;40838;50.676;7.838;2024-02-21T04:47:57;98840.53;;;4.65;100.00
54936;BME280;40838;50.676;7.838;2024-02-21T04:50:24;98837.09;;;4.58;100.00
54936;BME280;40838;50.676;7.838;2024-02-21T04:52:51;98844.56;;;4.54;100.00
54936;BME280;40838;50.676;7.838;2024-02-21T04:55:18;98843.56;;;4.69;100.00
54936;BME280;40838;50.676;7.838;2024-02-21T04:57:47;98832.06;;;4.50;100.00
54936;BME280;40838;50.676;7.838;2024-02-21T05:00:14;98828.63;;;4.63;100.00
54936;BME280;40838;50.676;7.838;2024-02-21T05:02:41;98825.59;;;4.52;100.00
54936;BME280;40838;50.676;7.838;2024-02-21T05:05:09;98831.44;;;4.54;100.00
54936;BME280;40838;50.676;7.838;2024-02-21T05:07:36;98836.69;;;4.48;100.00
54936;BME280;40838;50.676;7.838;2024-02-21T05:10:03;98822.41;;;4.70;100.00
54936;BME280;40838;50.676;7.838;2024-02-21T05:12:30;98817.34;;;4.62;100.00
54936;BME280;40838;50.676;7.838;2024-02-21T05:14:59;98819.75;;;4.64;100.00
54936;BME280;40838;50.676;7.838;2024-02-21T05:17:26;98813.13;;;4.61;100.00
54936;BME280;40838;50.676;7.838;2024-02-21T05:19:53;98803.63;;;4.67;100.00
54936;BME280;40838;50.676;7.838;2024-02-21T05:22:20;98800.59;;;4.56;100.00
54936;BME280;40838;50.676;7.838;2024-02-21T05:24:47;98795.34;;;4.70;100.00
54936;BME280;40838;50.676;7.838;2024-02-21T05:27:14;98792.50;;;4.58;100.00
54936;BME280;40838;50.676;7.838;2024-02-21T05:29:41;98797.38;;;4.68;100.00
54936;BME280;40838;50.676;7.838;2024-02-21T05:32:10;98784.69;;;4.65;100.00
54936;BME280;40838;50.676;7.838;2024-02-21T05:34:37;98789.53;;;4.61;100.00
54936;BME280;40838;50.676;7.838;2024-02-21T05:37:04;98796.94;;;4.57;100.00
54936;BME280;40838;50.676;7.838;2024-02-21T05:39:31;98785.25;;;4.67;100.00
54936;BME280;40838;50.676;7.838;2024-02-21T05:41:58;98792.91;;;4.48;100.00
54936;BME280;40838;50.676;7.838;2024-02-21T05:44:25;98788.91;;;4.52;100.00
54936;BME280;40838;50.676;7.838;2024-02-21T05:46:53;98789.13;;;4.64;100.00
54936;BME280;40838;50.676;7.838;2024-02-21T05:49:22;98796.16;;;4.77;100.00
54936;BME280;40838;50.676;7.838;2024-02-21T05:51:49;98800.59;;;4.90;100.00
54936;BME280;40838;50.676;7.838;2024-02-21T05:54:16;98809.47;;;4.75;100.00
54936;BME280;40838;50.676;7.838;2024-02-21T05:56:46;98807.88;;;4.74;100.00
54936;BME280;40838;50.676;7.838;2024-02-21T05:59:13;98805.25;;;4.88;100.00
54936;BME280;40838;50.676;7.838;2024-02-21T06:01:40;98794.75;;;4.81;100.00
54936;BME280;40838;50.676;7.838;2024-02-21T06:04:11;98793.13;;;4.87;100.00
54936;BME280;40838;50.676;7.838;2024-02-21T06:06:39;98783.25;;;4.69;100.00
54936;BME280;40838;50.676;7.838;2024-02-21T06:09:07;98782.44;;;4.75;100.00
54936;BME280;40838;50.676;7.838;2024-02-21T06:11:34;98777.63;;;4.85;100.00
54936;BME280;40838;50.676;7.838;2024-02-21T06:14:03;98773.34;;;4.57;100.00
54936;BME280;40838;50.676;7.838;2024-02-21T06:16:32;98784.69;;;4.65;100.00
54936;BME280;40838;50.676;7.838;2024-02-21T06:18:59;98785.47;;;4.85;100.00
54936;BME280;40838;50.676;7.838;2024-02-21T06:21:29;98780.22;;;4.78;100.00
54936;BME280;40838;50.676;7.838;2024-02-21T06:23:58;98776.00;;;4.71;100.00
54936;BME280;40838;50.676;7.838;2024-02-21T06:26:25;98783.84;;;4.77;100.00
54936;BME280;40838;50.676;7.838;2024-02-21T06:28:52;98787.28;;;4.78;100.00
54936;BME280;40838;50.676;7.838;2024-02-21T06:31:21;98778.41;;;4.59;100.00
54936;BME280;40838;50.676;7.838;2024-02-21T06:33:48;98792.13;;;4.81;100.00
54936;BME280;40838;50.676;7.838;2024-02-21T06:36:15;98791.13;;;4.95;100.00
54936;BME280;40838;50.676;7.838;2024-02-21T06:38:42;98791.31;;;4.87;100.00
54936;BME280;40838;50.676;7.838;2024-02-21T06:41:16;98780.63;;;5.02;100.00
54936;BME280;40838;50.676;7.838;2024-02-21T06:43:44;98776.81;;;4.71;100.00
54936;BME280;40838;50.676;7.838;2024-02-21T06:46:11;98778.19;;;4.87;100.00
54936;BME280;40838;50.676;7.838;2024-02-21T06:48:38;98767.72;;;5.00;100.00
54936;BME280;40838;50.676;7.838;2024-02-21T06:51:05;98763.66;;;4.98;100.00
54936;BME280;40838;50.676;7.838;2024-02-21T06:53:33;98765.69;;;5.09;100.00
54936;BME280;40838;50.676;7.838;2024-02-21T06:56:00;98767.91;;;4.72;100.00
54936;BME280;40838;50.676;7.838;2024-02-21T06:58:28;98752.81;;;4.68;100.00
54936;BME280;40838;50.676;7.838;2024-02-21T07:00:55;98749.56;;;4.79;100.00
54936;BME280;40838;50.676;7.838;2024-02-21T07:03:23;98757.63;;;4.97;100.00
54936;BME280;40838;50.676;7.838;2024-02-21T07:05:50;98757.66;;;4.64;100.00
54936;BME280;40838;50.676;7.838;2024-02-21T07:08:17;98759.44;;;4.50;100.00
54936;BME280;40838;50.676;7.838;2024-02-21T07:10:44;98754.03;;;4.58;100.00
54936;BME280;40838;50.676;7.838;2024-02-21T07:13:11;98759.66;;;4.62;100.00
54936;BME280;40838;50.676;7.838;2024-02-21T07:15:40;98755.03;;;4.64;100.00
54936;BME280;40838;50.676;7.838;2024-02-21T07:18:07;98753.00;;;4.59;100.00
54936;BME280;40838;50.676;7.838;2024-02-21T07:20:34;98751.81;;;4.55;100.00
54936;BME280;40838;50.676;7.838;2024-02-21T07:23:03;98746.75;;;4.74;100.00
54936;BME280;40838;50.676;7.838;2024-02-21T07:25:30;98753.78;;;4.67;100.00
54936;BME280;40838;50.676;7.838;2024-02-21T07:27:57;98754.00;;;4.45;100.00
54936;BME280;40838;50.676;7.838;2024-02-21T07:30:25;98757.03;;;4.62;100.00
54936;BME280;40838;50.676;7.838;2024-02-21T07:32:53;98759.03;;;4.60;100.00
54936;BME280;40838;50.676;7.838;2024-02-21T07:35:21;98754.41;;;4.35;100.00
54936;BME280;40838;50.676;7.838;2024-02-21T07:37:51;98754.22;;;4.50;100.00
54936;BME280;40838;50.676;7.838;2024-02-21T07:40:18;98741.91;;;4.44;100.00
54936;BME280;40838;50.676;7.838;2024-02-21T07:42:46;98743.13;;;4.62;100.00
54936;BME280;40838;50.676;7.838;2024-02-21T07:45:13;98739.66;;;4.28;100.00
54936;BME280;40838;50.676;7.838;2024-02-21T07:47:40;98735.44;;;4.33;100.00
54936;BME280;40838;50.676;7.838;2024-02-21T07:50:09;98745.31;;;4.25;100.00
54936;BME280;40838;50.676;7.838;2024-02-21T07:52:37;98733.44;;;4.42;100.00
54936;BME280;40838;50.676;7.838;2024-02-21T07:55:07;98728.59;;;4.39;100.00
54936;BME280;40838;50.676;7.838;2024-02-21T07:57:36;98729.00;;;4.29;100.00
54936;BME280;40838;50.676;7.838;2024-02-21T08:00:04;98729.34;;;4.13;100.00
54936;BME280;40838;50.676;7.838;2024-02-21T08:02:38;98723.53;;;4.18;100.00
54936;BME280;40838;50.676;7.838;2024-02-21T08:05:05;98725.78;;;4.41;100.00
54936;BME280;40838;50.676;7.838;2024-02-21T08:07:34;98722.53;;;4.19;100.00
54936;BME280;40838;50.676;7.838;2024-02-21T08:10:01;98726.56;;;4.15;100.00
54936;BME280;40838;50.676;7.838;2024-02-21T08:12:28;98716.69;;;4.56;100.00
54936;BME280;40838;50.676;7.838;2024-02-21T08:14:55;98717.88;;;4.34;100.00
54936;BME280;40838;50.676;7.838;2024-02-21T08:17:23;98717.09;;;4.40;100.00
54936;BME280;40838;50.676;7.838;2024-02-21T08:19:50;98716.09;;;4.48;100.00
54936;BME280;40838;50.676;7.838;2024-02-21T08:22:17;98720.75;;;4.52;100.00
54936;BME280;40838;50.676;7.838;2024-02-21T08:24:46;98708.22;;;4.54;100.00
54936;BME280;40838;50.676;7.838;2024-02-21T08:27:13;98702.38;;;4.46;100.00
54936;BME280;40838;50.676;7.838;2024-02-21T08:29:40;98698.34;;;4.50;100.00
54936;BME280;40838;50.676;7.838;2024-02-21T08:32:07;98695.72;;;4.43;100.00
54936;BME280;40838;50.676;7.838;2024-02-21T08:34:34;98681.38;;;4.66;100.00
54936;BME280;40838;50.676;7.838;2024-02-21T08:37:01;98672.09;;;4.83;100.00
54936;BME280;40838;50.676;7.838;2024-02-21T08:39:29;98680.56;;;4.85;100.00
54936;BME280;40838;50.676;7.838;2024-02-21T08:41:58;98670.22;;;5.03;100.00
54936;BME280;40838;50.676;7.838;2024-02-21T08:44:27;98668.44;;;4.91;100.00
54936;BME280;40838;50.676;7.838;2024-02-21T08:46:55;98673.88;;;5.02;100.00
54936;BME280;40838;50.676;7.838;2024-02-21T08:49:22;98657.78;;;5.37;100.00
54936;BME280;40838;50.676;7.838;2024-02-21T08:51:49;98658.25;;;5.66;100.00
54936;BME280;40838;50.676;7.838;2024-02-21T08:54:16;98653.91;;;5.40;100.00
54936;BME280;40838;50.676;7.838;2024-02-21T08:56:44;98651.47;;;5.83;100.00
54936;BME280;40838;50.676;7.838;2024-02-21T08:59:12;98653.22;;;5.64;100.00
54936;BME280;40838;50.676;7.838;2024-02-21T09:01:42;98644.38;;;5.84;100.00
54936;BME280;40838;50.676;7.838;2024-02-21T09:04:09;98640.94;;;6.15;100.00
54936;BME280;40838;50.676;7.838;2024-02-21T09:06:36;98643.81;;;6.07;100.00
54936;BME280;40838;50.676;7.838;2024-02-21T09:09:07;98634.16;;;6.57;100.00
54936;BME280;40838;50.676;7.838;2024-02-21T09:11:35;98630.41;;;6.65;100.00
54936;BME280;40838;50.676;7.838;2024-02-21T09:14:02;98649.00;;;6.70;100.00
54936;BME280;40838;50.676;7.838;2024-02-21T09:16:32;98641.41;;;6.30;100.00
54936;BME280;40838;50.676;7.838;2024-02-21T09:18:59;98640.50;;;6.18;100.00
54936;BME280;40838;50.676;7.838;2024-02-21T09:21:26;98624.88;;;6.05;100.00
54936;BME280;40838;50.676;7.838;2024-02-21T09:23:53;98628.66;;;6.09;100.00
54936;BME280;40838;50.676;7.838;2024-02-21T09:26:21;98624.00;;;6.11;100.00
54936;BME280;40838;50.676;7.838;2024-02-21T09:28:48;98632.53;;;6.31;100.00
54936;BME280;40838;50.676;7.838;2024-02-21T09:31:15;98610.47;;;6.57;100.00
54936;BME280;40838;50.676;7.838;2024-02-21T09:33:43;98610.16;;;6.66;100.00
54936;BME280;40838;50.676;7.838;2024-02-21T09:36:10;98606.69;;;6.28;100.00
54936;BME280;40838;50.676;7.838;2024-02-21T09:38:39;98615.22;;;6.49;100.00
54936;BME280;40838;50.676;7.838;2024-02-21T09:41:17;98606.38;;;6.61;100.00
54936;BME280;40838;50.676;7.838;2024-02-21T09:43:45;98609.25;;;6.78;100.00
54936;BME280;40838;50.676;7.838;2024-02-21T09:46:16;98612.66;;;6.97;100.00
54936;BME280;40838;50.676;7.838;2024-02-21T09:48:58;98592.00;;;6.64;100.00
54936;BME280;40838;50.676;7.838;2024-02-21T09:51:32;98585.00;;;7.55;100.00
54936;BME280;40838;50.676;7.838;2024-02-21T09:54:02;98590.03;;;7.26;100.00
54936;BME280;40838;50.676;7.838;2024-02-21T09:56:29;98580.66;;;6.82;100.00
54936;BME280;40838;50.676;7.838;2024-02-21T09:58:58;98570.78;;;6.59;100.00
54936;BME280;40838;50.676;7.838;2024-02-21T10:01:26;98569.47;;;6.50;100.00
54936;BME280;40838;50.676;7.838;2024-02-21T10:03:54;98561.28;;;6.14;100.00
54936;BME280;40838;50.676;7.838;2024-02-21T10:06:22;98574.91;;;5.55;100.00
54936;BME280;40838;50.676;7.838;2024-02-21T10:08:52;98571.50;;;5.79;100.00
54936;BME280;40838;50.676;7.838;2024-02-21T10:11:22;98569.59;;;5.86;100.00
54936;BME280;40838;50.676;7.838;2024-02-21T10:13:50;98573.56;;;5.95;100.00
54936;BME280;40838;50.676;7.838;2024-02-21T10:16:17;98559.69;;;6.13;100.00
54936;BME280;40838;50.676;7.838;2024-02-21T10:18:44;98554.81;;;6.17;100.00
54936;BME280;40838;50.676;7.838;2024-02-21T10:21:13;98549.97;;;5.89;100.00
54936;BME280;40838;50.676;7.838;2024-02-21T10:23:44;98557.19;;;5.75;100.00
54936;BME280;40838;50.676;7.838;2024-02-21T10:26:11;98563.69;;;6.59;100.00
54936;BME280;40838;50.676;7.838;2024-02-21T10:28:38;98547.59;;;6.86;100.00
54936;BME280;40838;50.676;7.838;2024-02-21T10:31:08;98541.78;;;6.66;100.00
54936;BME280;40838;50.676;7.838;2024-02-21T10:33:36;98547.09;;;6.77;100.00
54936;BME280;40838;50.676;7.838;2024-02-21T10:36:07;98549.03;;;6.08;100.00
54936;BME280;40838;50.676;7.838;2024-02-21T10:38:37;98542.03;;;6.46;100.00
54936;BME280;40838;50.676;7.838;2024-02-21T10:41:05;98541.66;;;5.92;100.00
54936;BME280;40838;50.676;7.838;2024-02-21T10:43:38;98541.78;;;6.47;100.00
54936;BME280;40838;50.676;7.838;2024-02-21T10:46:06;98534.25;;;6.51;100.00
54936;BME280;40838;50.676;7.838;2024-02-21T10:48:42;98539.22;;;6.77;100.00
54936;BME280;40838;50.676;7.838;2024-02-21T10:51:15;98522.22;;;7.10;100.00
54936;BME280;40838;50.676;7.838;2024-02-21T10:53:47;98526.31;;;7.06;100.00
54936;BME280;40838;50.676;7.838;2024-02-21T10:56:22;98515.44;;;7.44;100.00
54936;BME280;40838;50.676;7.838;2024-02-21T10:58:53;98506.22;;;7.23;100.00
54936;BME280;40838;50.676;7.838;2024-02-21T11:01:21;98508.31;;;6.73;100.00
54936;BME280;40838;50.676;7.838;2024-02-21T11:03:51;98505.25;;;6.76;100.00
54936;BME280;40838;50.676;7.838;2024-02-21T11:06:20;98493.94;;;6.75;100.00
54936;BME280;40838;50.676;7.838;2024-02-21T11:08:59;98482.31;;;6.28;100.00
54936;BME280;40838;50.676;7.838;2024-02-21T11:11:27;98489.09;;;6.17;100.00
54936;BME280;40838;50.676;7.838;2024-02-21T11:14:04;98495.94;;;6.36;100.00
54936;BME280;40838;50.676;7.838;2024-02-21T11:16:35;98495.53;;;7.06;100.00
54936;BME280;40838;50.676;7.838;2024-02-21T11:19:07;98494.94;;;6.74;100.00
54936;BME280;40838;50.676;7.838;2024-02-21T11:21:35;98494.41;;;6.84;100.00
54936;BME280;40838;50.676;7.838;2024-02-21T11:24:04;98489.66;;;6.74;100.00
54936;BME280;40838;50.676;7.838;2024-02-21T11:26:32;98485.63;;;6.42;100.00
54936;BME280;40838;50.676;7.838;2024-02-21T11:29:00;98477.22;;;6.51;100.00
54936;BME280;40838;50.676;7.838;2024-02-21T11:31:38;98476.25;;;6.64;100.00
54936;BME280;40838;50.676;7.838;2024-02-21T11:34:09;98463.16;;;6.21;100.00
54936;BME280;40838;50.676;7.838;2024-02-21T11:36:36;98462.28;;;6.27;100.00
54936;BME280;40838;50.676;7.838;2024-02-21T11:39:18;98450.91;;;6.14;100.00
54936;BME280;40838;50.676;7.838;2024-02-21T11:41:46;98448.44;;;6.87;100.00
54936;BME280;40838;50.676;7.838;2024-02-21T11:44:13;98441.84;;;6.96;100.00
54936;BME280;40838;50.676;7.838;2024-02-21T11:46:40;98431.19;;;6.42;100.00
54936;BME280;40838;50.676;7.838;2024-02-21T11:49:08;98424.38;;;6.83;100.00
54936;BME280;40838;50.676;7.838;2024-02-21T11:51:35;98410.09;;;7.32;100.00
54936;BME280;40838;50.676;7.838;2024-02-21T11:54:02;98404.59;;;7.69;100.00
54936;BME280;40838;50.676;7.838;2024-02-21T11:56:32;98398.84;;;7.96;100.00
54936;BME280;40838;50.676;7.838;2024-02-21T11:58:59;98392.03;;;7.60;100.00
54936;BME280;40838;50.676;7.838;2024-02-21T12:01:27;98377.09;;;7.18;100.00
54936;BME280;40838;50.676;7.838;2024-02-21T12:03:54;98365.69;;;7.24;100.00
54936;BME280;40838;50.676;7.838;2024-02-21T12:06:21;98376.56;;;7.51;100.00
54936;BME280;40838;50.676;7.838;2024-02-21T12:08:48;98373.69;;;7.41;100.00
54936;BME280;40838;50.676;7.838;2024-02-21T12:11:18;98360.13;;;7.85;100.00
54936;BME280;40838;50.676;7.838;2024-02-21T12:13:47;98342.97;;;7.59;100.00
54936;BME280;40838;50.676;7.838;2024-02-21T12:16:17;98347.56;;;6.93;100.00
54936;BME280;40838;50.676;7.838;2024-02-21T12:18:46;98338.28;;;7.61;100.00
54936;BME280;40838;50.676;7.838;2024-02-21T12:21:13;98337.50;;;7.13;100.00
54936;BME280;40838;50.676;7.838;2024-02-21T12:23:40;98322.16;;;6.98;100.00
54936;BME280;40838;50.676;7.838;2024-02-21T12:26:07;98317.38;;;7.19;100.00
54936;BME280;40838;50.676;7.838;2024-02-21T12:28:34;98323.88;;;6.93;100.00
54936;BME280;40838;50.676;7.838;2024-02-21T12:31:03;98308.06;;;6.81;100.00
54936;BME280;40838;50.676;7.838;2024-02-21T12:33:31;98313.06;;;6.71;100.00
54936;BME280;40838;50.676;7.838;2024-02-21T12:35:58;98310.28;;;6.54;100.00
54936;BME280;40838;50.676;7.838;2024-02-21T12:38:25;98317.09;;;6.85;100.00
54936;BME280;40838;50.676;7.838;2024-02-21T12:40:52;98295.84;;;7.10;100.00
54936;BME280;40838;50.676;7.838;2024-02-21T12:43:20;98299.50;;;7.32;100.00
54936;BME280;40838;50.676;7.838;2024-02-21T12:45:48;98287.16;;;7.33;100.00
54936;BME280;40838;50.676;7.838;2024-02-21T12:48:16;98277.63;;;7.32;100.00
54936;BME280;40838;50.676;7.838;2024-02-21T12:50:49;98273.97;;;7.21;100.00
54936;BME280;40838;50.676;7.838;2024-02-21T12:53:17;98275.69;;;6.80;100.00
54936;BME280;40838;50.676;7.838;2024-02-21T12:55:45;98268.34;;;6.71;100.00
54936;BME280;40838;50.676;7.838;2024-02-21T12:58:12;98250.88;;;6.88;100.00
54936;BME280;40838;50.676;7.838;2024-02-21T13:00:40;98249.41;;;7.04;100.00
54936;BME280;40838;50.676;7.838;2024-02-21T13:03:07;98236.44;;;7.14;100.00
54936;BME280;40838;50.676;7.838;2024-02-21T13:05:36;98231.84;;;6.98;100.00
54936;BME280;40838;50.676;7.838;2024-02-21T13:08:05;98218.31;;;7.29;100.00